Terminal Aerodrome Forecast
Issued by NWS

Home | Current Version | Previous Version | Text Only | Print | Product List | Glossary On
Versions: 1 2 3 4 5 6 7 8 9 10 11 12 13 14 15 16 17
000
FTUS44 KLZK 221700
TAFPBF
TAF
KPBF 221732Z 2218/2318 08003KT P6SM SCT035
     FM230000 VRB03KT P6SM SCT250
     FM230600 00000KT 4SM BR SKC
     FM231500 25003KT P6SM FEW050 SCT150=

USA.gov is the U.S. government's official web portal to all federal, state and local government web resources and services.